sensor_id;sensor_type;location;lat;lon;timestamp;pressure;altitude;pressure_sealevel;temperature;humidity
60240;BME280;46102;39.012;-7.064;2024-02-14T00:01:12;99121.06;;;14.62;100.00
60240;BME280;46102;39.012;-7.064;2024-02-14T00:03:12;99118.97;;;14.59;100.00
60240;BME280;46102;39.012;-7.064;2024-02-14T00:05:13;99108.25;;;14.57;100.00
60240;BME280;46102;39.012;-7.064;2024-02-14T00:07:13;99108.25;;;14.57;100.00
60240;BME280;46102;39.012;-7.064;2024-02-14T00:09:14;99121.25;;;14.57;100.00
60240;BME280;46102;39.012;-7.064;2024-02-14T00:11:15;99130.97;;;14.54;100.00
60240;BME280;46102;39.012;-7.064;2024-02-14T00:13:17;99117.50;;;14.53;100.00
60240;BME280;46102;39.012;-7.064;2024-02-14T00:15:21;99100.94;;;14.53;100.00
60240;BME280;46102;39.012;-7.064;2024-02-14T00:17:21;99104.81;;;14.52;100.00
60240;BME280;46102;39.012;-7.064;2024-02-14T00:19:22;99100.44;;;14.51;100.00
60240;BME280;46102;39.012;-7.064;2024-02-14T00:21:23;99096.06;;;14.50;100.00
60240;BME280;46102;39.012;-7.064;2024-02-14T00:23:24;99096.25;;;14.45;100.00
60240;BME280;46102;39.012;-7.064;2024-02-14T00:25:24;99084.06;;;14.46;100.00
60240;BME280;46102;39.012;-7.064;2024-02-14T00:27:25;99080.00;;;14.43;100.00
60240;BME280;46102;39.012;-7.064;2024-02-14T00:29:26;99080.66;;;14.40;100.00
60240;BME280;46102;39.012;-7.064;2024-02-14T00:31:27;99078.06;;;14.44;100.00
60240;BME280;46102;39.012;-7.064;2024-02-14T00:33:28;99073.69;;;14.43;100.00
60240;BME280;46102;39.012;-7.064;2024-02-14T00:35:28;99068.16;;;14.43;100.00
60240;BME280;46102;39.012;-7.064;2024-02-14T00:37:29;99058.59;;;14.40;100.00
60240;BME280;46102;39.012;-7.064;2024-02-14T00:39:29;99058.91;;;14.38;100.00
60240;BME280;46102;39.012;-7.064;2024-02-14T00:41:30;99069.50;;;14.36;100.00
60240;BME280;46102;39.012;-7.064;2024-02-14T00:43:30;99072.91;;;14.33;100.00
60240;BME280;46102;39.012;-7.064;2024-02-14T00:45:31;99083.94;;;14.33;100.00
60240;BME280;46102;39.012;-7.064;2024-02-14T00:47:34;99084.41;;;14.35;100.00
60240;BME280;46102;39.012;-7.064;2024-02-14T00:49:36;99079.38;;;14.37;100.00
60240;BME280;46102;39.012;-7.064;2024-02-14T00:51:37;99073.06;;;14.37;100.00
60240;BME280;46102;39.012;-7.064;2024-02-14T00:53:40;99075.34;;;14.35;100.00
60240;BME280;46102;39.012;-7.064;2024-02-14T00:55:40;99081.16;;;14.33;100.00
60240;BME280;46102;39.012;-7.064;2024-02-14T00:57:41;99080.84;;;14.35;100.00
60240;BME280;46102;39.012;-7.064;2024-02-14T00:59:41;99074.38;;;14.31;100.00
60240;BME280;46102;39.012;-7.064;2024-02-14T01:01:42;99081.69;;;14.27;100.00
60240;BME280;46102;39.012;-7.064;2024-02-14T01:03:42;99072.91;;;14.25;100.00
60240;BME280;46102;39.012;-7.064;2024-02-14T01:05:43;99074.38;;;14.22;100.00
60240;BME280;46102;39.012;-7.064;2024-02-14T01:07:44;99073.25;;;14.23;100.00
60240;BME280;46102;39.012;-7.064;2024-02-14T01:09:46;99081.88;;;14.22;100.00
60240;BME280;46102;39.012;-7.064;2024-02-14T01:11:47;99087.38;;;14.22;100.00
60240;BME280;46102;39.012;-7.064;2024-02-14T01:13:49;99092.09;;;14.21;100.00
60240;BME280;46102;39.012;-7.064;2024-02-14T01:15:49;99082.66;;;14.22;100.00
60240;BME280;46102;39.012;-7.064;2024-02-14T01:17:50;99069.34;;;14.24;100.00
60240;BME280;46102;39.012;-7.064;2024-02-14T01:19:50;99067.75;;;14.23;100.00
60240;BME280;46102;39.012;-7.064;2024-02-14T01:21:51;99073.59;;;14.22;100.00
60240;BME280;46102;39.012;-7.064;2024-02-14T01:23:52;99081.88;;;14.22;100.00
60240;BME280;46102;39.012;-7.064;2024-02-14T01:25:52;99089.34;;;14.21;100.00
60240;BME280;46102;39.012;-7.064;2024-02-14T01:27:54;99077.16;;;14.22;100.00
60240;BME280;46102;39.012;-7.064;2024-02-14T01:29:55;99074.38;;;14.22;100.00
60240;BME280;46102;39.012;-7.064;2024-02-14T01:31:57;99071.63;;;14.22;100.00
60240;BME280;46102;39.012;-7.064;2024-02-14T01:33:58;99069.19;;;14.21;100.00
60240;BME280;46102;39.012;-7.064;2024-02-14T01:35:59;99067.59;;;14.20;100.00
60240;BME280;46102;39.012;-7.064;2024-02-14T01:37:59;99061.56;;;14.18;100.00
60240;BME280;46102;39.012;-7.064;2024-02-14T01:40:03;99060.78;;;14.17;100.00
60240;BME280;46102;39.012;-7.064;2024-02-14T01:42:04;99053.63;;;14.16;100.00
60240;BME280;46102;39.012;-7.064;2024-02-14T01:44:07;99056.88;;;14.18;100.00
60240;BME280;46102;39.012;-7.064;2024-02-14T01:46:08;99072.81;;;14.12;100.00
60240;BME280;46102;39.012;-7.064;2024-02-14T01:48:09;99060.13;;;14.11;100.00
60240;BME280;46102;39.012;-7.064;2024-02-14T01:50:09;99070.34;;;14.11;100.00
60240;BME280;46102;39.012;-7.064;2024-02-14T01:52:11;99070.34;;;14.11;100.00
60240;BME280;46102;39.012;-7.064;2024-02-14T01:54:12;99068.41;;;14.11;100.00
60240;BME280;46102;39.012;-7.064;2024-02-14T01:56:13;99069.88;;;14.09;100.00
60240;BME280;46102;39.012;-7.064;2024-02-14T01:58:13;99076.53;;;14.08;100.00
60240;BME280;46102;39.012;-7.064;2024-02-14T02:00:14;99084.00;;;14.07;100.00
60240;BME280;46102;39.012;-7.064;2024-02-14T02:02:16;99093.09;;;14.08;100.00
60240;BME280;46102;39.012;-7.064;2024-02-14T02:04:18;99096.34;;;14.10;100.00
60240;BME280;46102;39.012;-7.064;2024-02-14T02:06:18;99099.91;;;14.10;100.00
60240;BME280;46102;39.012;-7.064;2024-02-14T02:08:19;99096.00;;;14.11;100.00
60240;BME280;46102;39.012;-7.064;2024-02-14T02:10:20;99092.44;;;14.11;100.00
60240;BME280;46102;39.012;-7.064;2024-02-14T02:12:22;99082.88;;;14.08;100.00
60240;BME280;46102;39.012;-7.064;2024-02-14T02:14:25;99078.16;;;14.09;100.00
60240;BME280;46102;39.012;-7.064;2024-02-14T02:16:26;99074.25;;;14.10;100.00
60240;BME280;46102;39.012;-7.064;2024-02-14T02:18:27;99067.47;;;14.07;100.00
60240;BME280;46102;39.012;-7.064;2024-02-14T02:20:27;99062.41;;;14.09;100.00
60240;BME280;46102;39.012;-7.064;2024-02-14T02:22:28;99069.88;;;14.09;100.00
60240;BME280;46102;39.012;-7.064;2024-02-14T02:24:32;99053.31;;;14.09;100.00
60240;BME280;46102;39.012;-7.064;2024-02-14T02:26:33;99042.28;;;14.09;100.00
60240;BME280;46102;39.012;-7.064;2024-02-14T02:28:33;99049.75;;;14.08;100.00
60240;BME280;46102;39.012;-7.064;2024-02-14T02:30:34;99038.72;;;14.08;100.00
60240;BME280;46102;39.012;-7.064;2024-02-14T02:32:35;99042.63;;;14.07;100.00
60240;BME280;46102;39.012;-7.064;2024-02-14T02:34:36;99035.16;;;14.08;100.00
60240;BME280;46102;39.012;-7.064;2024-02-14T02:36:40;99040.19;;;14.06;100.00
60240;BME280;46102;39.012;-7.064;2024-02-14T02:38:40;99049.59;;;14.05;100.00
60240;BME280;46102;39.012;-7.064;2024-02-14T02:40:41;99034.19;;;14.04;100.00
60240;BME280;46102;39.012;-7.064;2024-02-14T02:42:42;99038.09;;;14.03;100.00
60240;BME280;46102;39.012;-7.064;2024-02-14T02:44:42;99044.06;;;14.05;100.00
60240;BME280;46102;39.012;-7.064;2024-02-14T02:46:46;99044.56;;;14.07;100.00
60240;BME280;46102;39.012;-7.064;2024-02-14T02:48:46;99050.44;;;14.05;100.00
60240;BME280;46102;39.012;-7.064;2024-02-14T02:50:47;99048.16;;;14.07;100.00
60240;BME280;46102;39.012;-7.064;2024-02-14T02:52:49;99040.69;;;14.08;100.00
60240;BME280;46102;39.012;-7.064;2024-02-14T02:54:50;99048.47;;;14.06;100.00
60240;BME280;46102;39.012;-7.064;2024-02-14T02:56:50;99045.22;;;14.04;100.00
60240;BME280;46102;39.012;-7.064;2024-02-14T02:58:51;99044.06;;;14.05;100.00
60240;BME280;46102;39.012;-7.064;2024-02-14T03:00:54;99034.50;;;14.02;100.00
60240;BME280;46102;39.012;-7.064;2024-02-14T03:02:55;99037.28;;;14.02;100.00
60240;BME280;46102;39.012;-7.064;2024-02-14T03:04:56;99039.22;;;14.02;100.00
60240;BME280;46102;39.012;-7.064;2024-02-14T03:06:57;99040.38;;;14.01;100.00
60240;BME280;46102;39.012;-7.064;2024-02-14T03:08:58;99031.28;;;14.00;100.00
60240;BME280;46102;39.012;-7.064;2024-02-14T03:11:02;99030.47;;;14.00;100.00
60240;BME280;46102;39.012;-7.064;2024-02-14T03:13:02;99035.50;;;13.98;100.00
60240;BME280;46102;39.012;-7.064;2024-02-14T03:15:03;99034.69;;;13.97;100.00
60240;BME280;46102;39.012;-7.064;2024-02-14T03:17:05;99037.44;;;13.97;100.00
60240;BME280;46102;39.012;-7.064;2024-02-14T03:19:05;99033.88;;;13.97;100.00
60240;BME280;46102;39.012;-7.064;2024-02-14T03:21:06;99035.84;;;13.96;100.00
60240;BME280;46102;39.012;-7.064;2024-02-14T03:23:06;99032.25;;;13.95;100.00
60240;BME280;46102;39.012;-7.064;2024-02-14T03:25:07;99034.53;;;13.93;100.00
60240;BME280;46102;39.012;-7.064;2024-02-14T03:27:08;99027.88;;;13.94;100.00
60240;BME280;46102;39.012;-7.064;2024-02-14T03:29:08;99025.13;;;13.94;100.00
60240;BME280;46102;39.012;-7.064;2024-02-14T03:31:09;99023.84;;;13.92;100.00
60240;BME280;46102;39.012;-7.064;2024-02-14T03:33:12;99034.38;;;13.90;100.00
60240;BME280;46102;39.012;-7.064;2024-02-14T03:35:12;99033.09;;;13.87;100.00
60240;BME280;46102;39.012;-7.064;2024-02-14T03:37:16;99022.88;;;13.88;100.00
60240;BME280;46102;39.012;-7.064;2024-02-14T03:39:19;99025.31;;;13.89;100.00
60240;BME280;46102;39.012;-7.064;2024-02-14T03:41:19;99015.88;;;13.90;100.00
60240;BME280;46102;39.012;-7.064;2024-02-14T03:43:20;99008.75;;;13.89;100.00
60240;BME280;46102;39.012;-7.064;2024-02-14T03:45:22;99007.78;;;13.85;100.00
60240;BME280;46102;39.012;-7.064;2024-02-14T03:47:22;99010.56;;;13.85;100.00
60240;BME280;46102;39.012;-7.064;2024-02-14T03:49:23;99007.78;;;13.85;100.00
60240;BME280;46102;39.012;-7.064;2024-02-14T03:51:25;99007.44;;;13.87;100.00
60240;BME280;46102;39.012;-7.064;2024-02-14T03:53:26;98997.72;;;13.89;100.00
60240;BME280;46102;39.012;-7.064;2024-02-14T03:55:27;98988.31;;;13.90;100.00
60240;BME280;46102;39.012;-7.064;2024-02-14T03:57:27;98991.56;;;13.92;100.00
60240;BME280;46102;39.012;-7.064;2024-02-14T03:59:29;98992.66;;;13.91;100.00
60240;BME280;46102;39.012;-7.064;2024-02-14T04:01:30;98994.31;;;13.92;100.00
60240;BME280;46102;39.012;-7.064;2024-02-14T04:03:31;98993.16;;;13.93;100.00
60240;BME280;46102;39.012;-7.064;2024-02-14T04:05:32;98984.09;;;13.93;100.00
60240;BME280;46102;39.012;-7.064;2024-02-14T04:07:32;98983.59;;;13.91;100.00
60240;BME280;46102;39.012;-7.064;2024-02-14T04:09:34;98985.56;;;13.90;100.00
60240;BME280;46102;39.012;-7.064;2024-02-14T04:11:35;98990.25;;;13.90;100.00
60240;BME280;46102;39.012;-7.064;2024-02-14T04:13:36;98985.38;;;13.87;100.00
60240;BME280;46102;39.012;-7.064;2024-02-14T04:15:36;98988.97;;;13.87;100.00
60240;BME280;46102;39.012;-7.064;2024-02-14T04:17:37;98979.06;;;13.86;100.00
60240;BME280;46102;39.012;-7.064;2024-02-14T04:19:38;98974.69;;;13.85;100.00
60240;BME280;46102;39.012;-7.064;2024-02-14T04:21:38;98976.66;;;13.85;100.00
60240;BME280;46102;39.012;-7.064;2024-02-14T04:23:39;98967.06;;;13.82;100.00
60240;BME280;46102;39.012;-7.064;2024-02-14T04:25:40;98971.47;;;13.83;100.00
60240;BME280;46102;39.012;-7.064;2024-02-14T04:27:41;98971.78;;;13.82;100.00
60240;BME280;46102;39.012;-7.064;2024-02-14T04:29:45;98971.78;;;13.82;100.00
60240;BME280;46102;39.012;-7.064;2024-02-14T04:31:45;98975.69;;;13.81;100.00
60240;BME280;46102;39.012;-7.064;2024-02-14T04:33:46;98964.97;;;13.79;100.00
60240;BME280;46102;39.012;-7.064;2024-02-14T04:35:52;98955.91;;;13.79;100.00
60240;BME280;46102;39.012;-7.064;2024-02-14T04:37:52;98959.78;;;13.78;100.00
60240;BME280;46102;39.012;-7.064;2024-02-14T04:39:53;98958.19;;;13.77;100.00
60240;BME280;46102;39.012;-7.064;2024-02-14T04:41:54;98954.94;;;13.74;100.00
60240;BME280;46102;39.012;-7.064;2024-02-14T04:43:54;98961.25;;;13.75;100.00
60240;BME280;46102;39.012;-7.064;2024-02-14T04:45:55;98956.53;;;13.75;100.00
60240;BME280;46102;39.012;-7.064;2024-02-14T04:47:55;98954.78;;;13.71;100.00
60240;BME280;46102;39.012;-7.064;2024-02-14T04:49:56;98950.09;;;13.71;100.00
60240;BME280;46102;39.012;-7.064;2024-02-14T04:51:57;98946.69;;;13.66;100.00
60240;BME280;46102;39.012;-7.064;2024-02-14T04:53:57;98954.81;;;13.62;100.00
60240;BME280;46102;39.012;-7.064;2024-02-14T04:56:01;98948.47;;;13.62;100.00
60240;BME280;46102;39.012;-7.064;2024-02-14T04:58:01;98953.19;;;13.61;100.00
60240;BME280;46102;39.012;-7.064;2024-02-14T05:00:03;98953.84;;;13.58;100.00
60240;BME280;46102;39.012;-7.064;2024-02-14T05:02:04;98941.53;;;13.56;100.00
60240;BME280;46102;39.012;-7.064;2024-02-14T05:04:06;98936.81;;;13.56;100.00
60240;BME280;46102;39.012;-7.064;2024-02-14T05:06:07;98942.66;;;13.54;100.00
60240;BME280;46102;39.012;-7.064;2024-02-14T05:08:08;98947.38;;;13.54;100.00
60240;BME280;46102;39.012;-7.064;2024-02-14T05:10:08;98958.38;;;13.54;100.00
60240;BME280;46102;39.012;-7.064;2024-02-14T05:12:09;98948.84;;;13.51;100.00
60240;BME280;46102;39.012;-7.064;2024-02-14T05:14:10;98960.16;;;13.50;100.00
60240;BME280;46102;39.012;-7.064;2024-02-14T05:16:11;98963.91;;;13.45;100.00
60240;BME280;46102;39.012;-7.064;2024-02-14T05:18:12;98957.59;;;13.45;100.00
60240;BME280;46102;39.012;-7.064;2024-02-14T05:20:12;98957.91;;;13.43;100.00
60240;BME280;46102;39.012;-7.064;2024-02-14T05:22:13;98960.97;;;13.42;100.00
60240;BME280;46102;39.012;-7.064;2024-02-14T05:24:13;98958.22;;;13.42;100.00
60240;BME280;46102;39.012;-7.064;2024-02-14T05:26:14;98954.19;;;13.39;100.00
60240;BME280;46102;39.012;-7.064;2024-02-14T05:28:15;98956.94;;;13.39;100.00
60240;BME280;46102;39.012;-7.064;2024-02-14T05:30:18;98960.34;;;13.36;100.00
60240;BME280;46102;39.012;-7.064;2024-02-14T05:32:18;98953.69;;;13.37;100.00
60240;BME280;46102;39.012;-7.064;2024-02-14T05:34:19;98967.34;;;13.33;100.00
60240;BME280;46102;39.012;-7.064;2024-02-14T05:36:19;98963.13;;;13.36;100.00
60240;BME280;46102;39.012;-7.064;2024-02-14T05:38:20;98966.53;;;13.33;100.00
60240;BME280;46102;39.012;-7.064;2024-02-14T05:40:20;98970.41;;;13.32;100.00
60240;BME280;46102;39.012;-7.064;2024-02-14T05:42:21;98959.25;;;13.28;100.00
60240;BME280;46102;39.012;-7.064;2024-02-14T05:44:22;98962.28;;;13.27;100.00
60240;BME280;46102;39.012;-7.064;2024-02-14T05:46:23;98947.22;;;13.24;100.00
60240;BME280;46102;39.012;-7.064;2024-02-14T05:48:23;98948.34;;;13.23;100.00
60240;BME280;46102;39.012;-7.064;2024-02-14T05:50:24;98951.75;;;13.20;100.00
60240;BME280;46102;39.012;-7.064;2024-02-14T05:52:25;98950.59;;;13.21;100.00
60240;BME280;46102;39.012;-7.064;2024-02-14T05:54:25;98955.31;;;13.21;100.00
60240;BME280;46102;39.012;-7.064;2024-02-14T05:56:26;98955.63;;;13.19;100.00
60240;BME280;46102;39.012;-7.064;2024-02-14T05:58:26;98957.56;;;13.19;100.00
60240;BME280;46102;39.012;-7.064;2024-02-14T06:00:27;98961.13;;;13.19;100.00
60240;BME280;46102;39.012;-7.064;2024-02-14T06:02:28;98959.53;;;13.18;100.00
60240;BME280;46102;39.012;-7.064;2024-02-14T06:04:28;98942.50;;;13.16;100.00
60240;BME280;46102;39.012;-7.064;2024-02-14T06:06:29;98936.81;;;13.12;100.00
60240;BME280;46102;39.012;-7.064;2024-02-14T06:08:29;98936.50;;;13.14;100.00
60240;BME280;46102;39.012;-7.064;2024-02-14T06:10:30;98942.81;;;13.15;100.00
60240;BME280;46102;39.012;-7.064;2024-02-14T06:12:30;98942.34;;;13.12;100.00
60240;BME280;46102;39.012;-7.064;2024-02-14T06:14:32;98939.94;;;13.11;100.00
60240;BME280;46102;39.012;-7.064;2024-02-14T06:16:34;98935.22;;;13.11;100.00
60240;BME280;46102;39.012;-7.064;2024-02-14T06:18:35;98927.75;;;13.12;100.00
60240;BME280;46102;39.012;-7.064;2024-02-14T06:20:35;98930.38;;;13.08;100.00
60240;BME280;46102;39.012;-7.064;2024-02-14T06:22:36;98937.50;;;13.09;100.00
60240;BME280;46102;39.012;-7.064;2024-02-14T06:24:37;98935.53;;;13.10;100.00
60240;BME280;46102;39.012;-7.064;2024-02-14T06:26:37;98939.25;;;13.05;100.00
60240;BME280;46102;39.012;-7.064;2024-02-14T06:28:38;98949.78;;;13.03;100.00
60240;BME280;46102;39.012;-7.064;2024-02-14T06:30:38;98956.13;;;13.04;100.00
60240;BME280;46102;39.012;-7.064;2024-02-14T06:32:39;98957.75;;;13.05;100.00
60240;BME280;46102;39.012;-7.064;2024-02-14T06:34:40;98962.09;;;13.06;100.00
60240;BME280;46102;39.012;-7.064;2024-02-14T06:36:40;98950.28;;;13.05;100.00
60240;BME280;46102;39.012;-7.064;2024-02-14T06:38:41;98952.53;;;13.03;100.00
60240;BME280;46102;39.012;-7.064;2024-02-14T06:40:41;98952.06;;;13.01;100.00
60240;BME280;46102;39.012;-7.064;2024-02-14T06:42:44;98945.44;;;13.02;100.00
60240;BME280;46102;39.012;-7.064;2024-02-14T06:44:44;98948.19;;;13.02;100.00
60240;BME280;46102;39.012;-7.064;2024-02-14T06:46:45;98948.84;;;12.99;100.00
60240;BME280;46102;39.012;-7.064;2024-02-14T06:48:45;98953.53;;;12.99;100.00
60240;BME280;46102;39.012;-7.064;2024-02-14T06:50:46;98951.91;;;12.98;100.00
60240;BME280;46102;39.012;-7.064;2024-02-14T06:52:47;98942.34;;;12.95;100.00
60240;BME280;46102;39.012;-7.064;2024-02-14T06:54:47;98952.88;;;12.93;100.00
60240;BME280;46102;39.012;-7.064;2024-02-14T06:56:48;98947.69;;;12.91;100.00
60240;BME280;46102;39.012;-7.064;2024-02-14T06:58:48;98955.16;;;12.91;100.00
60240;BME280;46102;39.012;-7.064;2024-02-14T07:00:53;98954.84;;;12.93;100.00
60240;BME280;46102;39.012;-7.064;2024-02-14T07:02:54;98959.84;;;12.90;100.00
60240;BME280;46102;39.012;-7.064;2024-02-14T07:04:54;98967.78;;;12.92;100.00
60240;BME280;46102;39.012;-7.064;2024-02-14T07:06:55;98957.09;;;12.90;100.00
60240;BME280;46102;39.012;-7.064;2024-02-14T07:08:55;98962.25;;;12.92;100.00
60240;BME280;46102;39.012;-7.064;2024-02-14T07:10:56;98960.00;;;12.94;100.00
60240;BME280;46102;39.012;-7.064;2024-02-14T07:12:57;98964.69;;;12.94;100.00
60240;BME280;46102;39.012;-7.064;2024-02-14T07:14:57;98963.09;;;12.93;100.00
60240;BME280;46102;39.012;-7.064;2024-02-14T07:16:58;98964.22;;;12.91;100.00
60240;BME280;46102;39.012;-7.064;2024-02-14T07:18:58;98959.50;;;12.92;100.00
60240;BME280;46102;39.012;-7.064;2024-02-14T07:20:59;98948.00;;;12.90;100.00
60240;BME280;46102;39.012;-7.064;2024-02-14T07:22:59;98943.66;;;12.89;100.00
60240;BME280;46102;39.012;-7.064;2024-02-14T07:25:00;98953.50;;;12.90;100.00
60240;BME280;46102;39.012;-7.064;2024-02-14T07:27:01;98959.00;;;12.90;100.00
60240;BME280;46102;39.012;-7.064;2024-02-14T07:29:01;98968.91;;;12.91;100.00
60240;BME280;46102;39.012;-7.064;2024-02-14T07:31:03;98953.19;;;12.91;100.00
60240;BME280;46102;39.012;-7.064;2024-02-14T07:33:04;98957.59;;;12.93;100.00
60240;BME280;46102;39.012;-7.064;2024-02-14T07:35:05;98951.25;;;12.92;100.00
60240;BME280;46102;39.012;-7.064;2024-02-14T07:37:05;98962.25;;;12.92;100.00
60240;BME280;46102;39.012;-7.064;2024-02-14T07:39:06;98966.66;;;12.93;100.00
60240;BME280;46102;39.012;-7.064;2024-02-14T07:41:07;98965.38;;;12.99;100.00
60240;BME280;46102;39.012;-7.064;2024-02-14T07:43:07;98964.22;;;13.00;100.00
60240;BME280;46102;39.012;-7.064;2024-02-14T07:45:08;98965.03;;;13.01;100.00
60240;BME280;46102;39.012;-7.064;2024-02-14T07:47:09;98964.41;;;13.04;100.00
60240;BME280;46102;39.012;-7.064;2024-02-14T07:49:09;98963.25;;;13.13;100.00
60240;BME280;46102;39.012;-7.064;2024-02-14T07:51:10;98965.38;;;13.34;100.00
60240;BME280;46102;39.012;-7.064;2024-02-14T07:53:11;98963.91;;;13.45;100.00
60240;BME280;46102;39.012;-7.064;2024-02-14T07:55:11;98980.94;;;13.56;100.00
60240;BME280;46102;39.012;-7.064;2024-02-14T07:57:12;98977.81;;;13.58;100.00
60240;BME280;46102;39.012;-7.064;2024-02-14T07:59:13;98978.50;;;13.54;100.00
60240;BME280;46102;39.012;-7.064;2024-02-14T08:01:13;98990.19;;;13.51;100.00
60240;BME280;46102;39.012;-7.064;2024-02-14T08:03:14;98994.41;;;13.49;100.00
60240;BME280;46102;39.012;-7.064;2024-02-14T08:05:15;99002.66;;;13.49;100.00
60240;BME280;46102;39.012;-7.064;2024-02-14T08:07:15;98993.06;;;13.46;100.00
60240;BME280;46102;39.012;-7.064;2024-02-14T08:09:16;98993.41;;;13.45;100.00
60240;BME280;46102;39.012;-7.064;2024-02-14T08:11:17;98989.88;;;13.44;100.00
60240;BME280;46102;39.012;-7.064;2024-02-14T08:13:18;98991.16;;;13.47;100.00
60240;BME280;46102;39.012;-7.064;2024-02-14T08:15:18;98994.06;;;13.50;100.00
60240;BME280;46102;39.012;-7.064;2024-02-14T08:17:20;98986.28;;;13.52;100.00
60240;BME280;46102;39.012;-7.064;2024-02-14T08:19:21;98988.84;;;13.58;100.00
60240;BME280;46102;39.012;-7.064;2024-02-14T08:21:21;98977.81;;;13.58;100.00
60240;BME280;46102;39.012;-7.064;2024-02-14T08:23:22;98974.44;;;13.61;100.00
60240;BME280;46102;39.012;-7.064;2024-02-14T08:25:22;98977.19;;;13.61;100.00
60240;BME280;46102;39.012;-7.064;2024-02-14T08:27:23;98980.44;;;13.63;100.00
60240;BME280;46102;39.012;-7.064;2024-02-14T08:29:24;98982.81;;;13.73;100.00
60240;BME280;46102;39.012;-7.064;2024-02-14T08:31:24;98982.69;;;13.78;100.00
60240;BME280;46102;39.012;-7.064;2024-02-14T08:33:25;98969.50;;;13.84;100.00
60240;BME280;46102;39.012;-7.064;2024-02-14T08:35:25;98968.84;;;13.87;100.00
60240;BME280;46102;39.012;-7.064;2024-02-14T08:37:26;98961.06;;;13.89;100.00
60240;BME280;46102;39.012;-7.064;2024-02-14T08:39:26;98963.97;;;13.92;100.00
60240;BME280;46102;39.012;-7.064;2024-02-14T08:41:28;98965.25;;;13.95;100.00
60240;BME280;46102;39.012;-7.064;2024-02-14T08:43:29;98966.06;;;13.95;100.00
60240;BME280;46102;39.012;-7.064;2024-02-14T08:45:30;98963.47;;;13.99;100.00
60240;BME280;46102;39.012;-7.064;2024-02-14T08:47:30;98957.44;;;14.06;100.00
60240;BME280;46102;39.012;-7.064;2024-02-14T08:49:31;98958.88;;;14.12;100.00
60240;BME280;46102;39.012;-7.064;2024-02-14T08:51:31;98961.78;;;14.15;100.00
60240;BME280;46102;39.012;-7.064;2024-02-14T08:53:32;98971.00;;;14.20;100.00
60240;BME280;46102;39.012;-7.064;2024-02-14T08:55:33;98975.69;;;14.28;100.00
60240;BME280;46102;39.012;-7.064;2024-02-14T08:57:34;98971.78;;;14.29;100.00
60240;BME280;46102;39.012;-7.064;2024-02-14T08:59:35;98982.81;;;14.29;100.00
60240;BME280;46102;39.012;-7.064;2024-02-14T09:01:36;98979.38;;;14.32;100.00
60240;BME280;46102;39.012;-7.064;2024-02-14T09:03:36;98979.69;;;14.39;100.00
60240;BME280;46102;39.012;-7.064;2024-02-14T09:05:37;98982.41;;;14.48;100.00
60240;BME280;46102;39.012;-7.064;2024-02-14T09:07:38;98978.50;;;14.57;100.00
60240;BME280;46102;39.012;-7.064;2024-02-14T09:09:39;98979.09;;;14.63;100.00
60240;BME280;46102;39.012;-7.064;2024-02-14T09:11:40;98982.34;;;14.65;100.00
60240;BME280;46102;39.012;-7.064;2024-02-14T09:13:41;98972.94;;;14.66;100.00
60240;BME280;46102;39.012;-7.064;2024-02-14T09:15:42;98975.16;;;14.73;100.00
60240;BME280;46102;39.012;-7.064;2024-02-14T09:17:43;98986.00;;;14.78;100.00
60240;BME280;46102;39.012;-7.064;2024-02-14T09:19:43;98981.56;;;14.86;100.00
60240;BME280;46102;39.012;-7.064;2024-02-14T09:21:44;98977.25;;;14.97;100.00
60240;BME280;46102;39.012;-7.064;2024-02-14T09:23:46;98975.59;;;15.05;100.00
60240;BME280;46102;39.012;-7.064;2024-02-14T09:25:47;98974.78;;;15.04;100.00
60240;BME280;46102;39.012;-7.064;2024-02-14T09:27:48;98984.94;;;15.12;100.00
60240;BME280;46102;39.012;-7.064;2024-02-14T09:29:48;98978.75;;;15.15;100.00
60240;BME280;46102;39.012;-7.064;2024-02-14T09:31:50;98976.66;;;15.12;100.00
60240;BME280;46102;39.012;-7.064;2024-02-14T09:33:51;98980.22;;;15.13;100.00
60240;BME280;46102;39.012;-7.064;2024-02-14T09:35:57;98971.13;;;15.12;100.00
60240;BME280;46102;39.012;-7.064;2024-02-14T09:37:57;98974.03;;;15.16;100.00
60240;BME280;46102;39.012;-7.064;2024-02-14T09:39:58;98971.75;;;15.18;100.00
60240;BME280;46102;39.012;-7.064;2024-02-14T09:41:59;98975.25;;;15.27;100.00
60240;BME280;46102;39.012;-7.064;2024-02-14T09:43:59;98967.53;;;15.33;100.00
60240;BME280;46102;39.012;-7.064;2024-02-14T09:46:00;98967.69;;;15.36;100.00
60240;BME280;46102;39.012;-7.064;2024-02-14T09:48:03;98974.50;;;15.39;100.00
60240;BME280;46102;39.012;-7.064;2024-02-14T09:50:04;98962.75;;;15.42;100.00
60240;BME280;46102;39.012;-7.064;2024-02-14T09:52:06;98964.50;;;15.47;100.00
60240;BME280;46102;39.012;-7.064;2024-02-14T09:54:08;98963.47;;;15.51;100.00
60240;BME280;46102;39.012;-7.064;2024-02-14T09:56:11;98952.53;;;15.55;100.00
60240;BME280;46102;39.012;-7.064;2024-02-14T09:58:17;98943.13;;;15.56;100.00
60240;BME280;46102;39.012;-7.064;2024-02-14T10:00:18;98947.97;;;15.59;100.00
60240;BME280;46102;39.012;-7.064;2024-02-14T10:02:19;98945.28;;;15.62;100.00
60240;BME280;46102;39.012;-7.064;2024-02-14T10:04:20;98948.34;;;15.70;100.00
60240;BME280;46102;39.012;-7.064;2024-02-14T10:06:22;98940.41;;;15.80;100.00
60240;BME280;46102;39.012;-7.064;2024-02-14T10:08:24;98937.56;;;15.89;100.00
60240;BME280;46102;39.012;-7.064;2024-02-14T10:10:26;98938.25;;;15.98;100.00
60240;BME280;46102;39.012;-7.064;2024-02-14T10:12:28;98935.53;;;16.11;100.00
60240;BME280;46102;39.012;-7.064;2024-02-14T10:14:29;98928.03;;;16.23;100.00
60240;BME280;46102;39.012;-7.064;2024-02-14T10:16:30;98928.72;;;16.33;100.00
60240;BME280;46102;39.012;-7.064;2024-02-14T10:18:31;98933.56;;;16.36;100.00
60240;BME280;46102;39.012;-7.064;2024-02-14T10:20:32;98933.78;;;16.43;100.00
60240;BME280;46102;39.012;-7.064;2024-02-14T10:22:34;98925.47;;;16.43;100.00
60240;BME280;46102;39.012;-7.064;2024-02-14T10:24:35;98928.25;;;16.43;100.00